Aviation Digital Data Service (ADDS)

Output produced by METARs form (1858 UTC 18 June 2019)
found at http://www.aviationweather.gov/metar/data/
 
TAF TUPJ 181700Z 1818/1918 12012KT 9999 SCT018